sensor_id;sensor_type;location;lat;lon;timestamp;P1;durP1;ratioP1;P2;durP2;ratioP2
29414;SDS011;20303;48.302;11.914;2023-03-15T00:01:16;23.20;;;12.15;;
29414;SDS011;20303;48.302;11.914;2023-03-15T00:11:18;22.10;;;11.82;;
29414;SDS011;20303;48.302;11.914;2023-03-15T00:21:19;19.88;;;11.15;;
29414;SDS011;20303;48.302;11.914;2023-03-15T00:31:22;19.45;;;10.38;;
29414;SDS011;20303;48.302;11.914;2023-03-15T00:41:24;17.60;;;10.45;;
29414;SDS011;20303;48.302;11.914;2023-03-15T00:51:25;17.33;;;9.32;;
29414;SDS011;20303;48.302;11.914;2023-03-15T01:01:27;14.43;;;8.38;;
29414;SDS011;20303;48.302;11.914;2023-03-15T01:11:29;13.25;;;8.15;;
29414;SDS011;20303;48.302;11.914;2023-03-15T01:21:30;13.73;;;7.90;;
29414;SDS011;20303;48.302;11.914;2023-03-15T01:31:31;12.82;;;7.25;;
29414;SDS011;20303;48.302;11.914;2023-03-15T01:41:32;10.18;;;6.78;;
29414;SDS011;20303;48.302;11.914;2023-03-15T02:01:48;10.50;;;6.65;;
29414;SDS011;20303;48.302;11.914;2023-03-15T02:11:53;10.18;;;6.00;;
29414;SDS011;20303;48.302;11.914;2023-03-15T02:22:31;10.10;;;5.78;;
29414;SDS011;20303;48.302;11.914;2023-03-15T02:32:26;8.23;;;5.40;;
29414;SDS011;20303;48.302;11.914;2023-03-15T02:42:27;7.97;;;5.10;;
29414;SDS011;20303;48.302;11.914;2023-03-15T02:52:28;7.35;;;4.95;;
29414;SDS011;20303;48.302;11.914;2023-03-15T03:02:29;6.50;;;4.50;;
29414;SDS011;20303;48.302;11.914;2023-03-15T03:12:30;7.60;;;4.75;;
29414;SDS011;20303;48.302;11.914;2023-03-15T03:22:32;5.90;;;3.70;;
29414;SDS011;20303;48.302;11.914;2023-03-15T03:32:33;6.05;;;4.20;;
29414;SDS011;20303;48.302;11.914;2023-03-15T03:42:34;6.97;;;4.10;;
29414;SDS011;20303;48.302;11.914;2023-03-15T03:52:35;5.55;;;3.50;;
29414;SDS011;20303;48.302;11.914;2023-03-15T04:02:36;6.18;;;3.40;;
29414;SDS011;20303;48.302;11.914;2023-03-15T04:12:37;4.93;;;3.13;;
29414;SDS011;20303;48.302;11.914;2023-03-15T04:22:42;5.70;;;3.50;;
29414;SDS011;20303;48.302;11.914;2023-03-15T04:32:48;4.90;;;2.90;;
29414;SDS011;20303;48.302;11.914;2023-03-15T04:42:49;4.35;;;2.65;;
29414;SDS011;20303;48.302;11.914;2023-03-15T04:52:54;4.88;;;2.90;;
29414;SDS011;20303;48.302;11.914;2023-03-15T05:02:56;4.95;;;2.60;;
29414;SDS011;20303;48.302;11.914;2023-03-15T05:12:57;6.68;;;2.83;;
29414;SDS011;20303;48.302;11.914;2023-03-15T05:22:58;4.80;;;2.63;;
29414;SDS011;20303;48.302;11.914;2023-03-15T05:33:00;3.35;;;2.20;;
29414;SDS011;20303;48.302;11.914;2023-03-15T05:43:03;3.60;;;2.28;;
29414;SDS011;20303;48.302;11.914;2023-03-15T05:53:04;3.72;;;1.90;;
29414;SDS011;20303;48.302;11.914;2023-03-15T06:03:05;3.55;;;1.85;;
29414;SDS011;20303;48.302;11.914;2023-03-15T06:13:06;4.85;;;2.00;;
29414;SDS011;20303;48.302;11.914;2023-03-15T06:23:08;4.70;;;2.00;;
29414;SDS011;20303;48.302;11.914;2023-03-15T06:33:09;4.32;;;2.00;;
29414;SDS011;20303;48.302;11.914;2023-03-15T06:43:10;2.95;;;1.90;;
29414;SDS011;20303;48.302;11.914;2023-03-15T06:53:17;3.97;;;2.13;;
29414;SDS011;20303;48.302;11.914;2023-03-15T07:03:18;7.82;;;2.10;;
29414;SDS011;20303;48.302;11.914;2023-03-15T07:13:21;10.30;;;2.45;;
29414;SDS011;20303;48.302;11.914;2023-03-15T07:23:22;8.55;;;2.10;;
29414;SDS011;20303;48.302;11.914;2023-03-15T07:33:23;7.28;;;2.03;;
29414;SDS011;20303;48.302;11.914;2023-03-15T07:43:25;7.20;;;2.25;;
29414;SDS011;20303;48.302;11.914;2023-03-15T07:53:26;7.32;;;2.20;;
29414;SDS011;20303;48.302;11.914;2023-03-15T08:03:27;7.00;;;1.80;;
29414;SDS011;20303;48.302;11.914;2023-03-15T08:13:28;5.38;;;1.80;;
29414;SDS011;20303;48.302;11.914;2023-03-15T08:23:29;4.47;;;1.92;;
29414;SDS011;20303;48.302;11.914;2023-03-15T08:33:30;4.88;;;1.65;;
29414;SDS011;20303;48.302;11.914;2023-03-15T08:43:31;4.03;;;1.70;;
29414;SDS011;20303;48.302;11.914;2023-03-15T08:53:32;4.60;;;1.63;;
29414;SDS011;20303;48.302;11.914;2023-03-15T09:03:34;6.53;;;1.60;;
29414;SDS011;20303;48.302;11.914;2023-03-15T09:13:35;4.75;;;1.55;;
29414;SDS011;20303;48.302;11.914;2023-03-15T09:23:36;5.30;;;1.63;;
29414;SDS011;20303;48.302;11.914;2023-03-15T09:33:37;3.72;;;1.58;;
29414;SDS011;20303;48.302;11.914;2023-03-15T09:43:42;4.15;;;1.60;;
29414;SDS011;20303;48.302;11.914;2023-03-15T10:35:17;4.10;;;1.60;;
29414;SDS011;20303;48.302;11.914;2023-03-15T10:45:24;3.63;;;1.48;;
29414;SDS011;20303;48.302;11.914;2023-03-15T10:55:31;4.50;;;1.42;;
29414;SDS011;20303;48.302;11.914;2023-03-15T11:05:40;3.80;;;1.75;;
29414;SDS011;20303;48.302;11.914;2023-03-15T11:15:46;6.72;;;2.10;;
29414;SDS011;20303;48.302;11.914;2023-03-15T11:26:18;6.20;;;2.20;;
29414;SDS011;20303;48.302;11.914;2023-03-15T11:36:22;8.15;;;1.98;;
29414;SDS011;20303;48.302;11.914;2023-03-15T11:46:34;4.70;;;1.48;;
29414;SDS011;20303;48.302;11.914;2023-03-15T12:06:45;5.68;;;1.80;;
29414;SDS011;20303;48.302;11.914;2023-03-15T12:16:46;7.65;;;2.30;;
29414;SDS011;20303;48.302;11.914;2023-03-15T12:26:47;10.77;;;3.03;;
29414;SDS011;20303;48.302;11.914;2023-03-15T12:36:50;8.60;;;2.67;;
29414;SDS011;20303;48.302;11.914;2023-03-15T12:46:55;7.30;;;2.40;;
29414;SDS011;20303;48.302;11.914;2023-03-15T12:57:01;8.30;;;2.42;;
29414;SDS011;20303;48.302;11.914;2023-03-15T13:07:16;5.68;;;2.30;;
29414;SDS011;20303;48.302;11.914;2023-03-15T13:17:31;6.35;;;2.42;;
29414;SDS011;20303;48.302;11.914;2023-03-15T13:48:22;4.95;;;2.10;;
29414;SDS011;20303;48.302;11.914;2023-03-15T13:58:26;5.55;;;2.30;;
29414;SDS011;20303;48.302;11.914;2023-03-15T14:18:32;4.80;;;1.50;;
29414;SDS011;20303;48.302;11.914;2023-03-15T14:28:35;3.83;;;1.52;;
29414;SDS011;20303;48.302;11.914;2023-03-15T14:38:37;5.00;;;1.70;;
29414;SDS011;20303;48.302;11.914;2023-03-15T14:48:38;4.95;;;1.70;;
29414;SDS011;20303;48.302;11.914;2023-03-15T14:58:40;4.70;;;1.50;;
29414;SDS011;20303;48.302;11.914;2023-03-15T15:08:42;4.30;;;1.58;;
29414;SDS011;20303;48.302;11.914;2023-03-15T15:18:45;11.23;;;1.88;;
29414;SDS011;20303;48.302;11.914;2023-03-15T15:28:46;3.50;;;1.40;;
29414;SDS011;20303;48.302;11.914;2023-03-15T15:38:48;5.65;;;1.45;;
29414;SDS011;20303;48.302;11.914;2023-03-15T15:48:50;3.65;;;1.30;;
29414;SDS011;20303;48.302;11.914;2023-03-15T15:58:51;7.50;;;1.40;;
29414;SDS011;20303;48.302;11.914;2023-03-15T16:08:52;4.13;;;1.48;;
29414;SDS011;20303;48.302;11.914;2023-03-15T16:18:53;8.88;;;1.55;;
29414;SDS011;20303;48.302;11.914;2023-03-15T16:28:54;8.20;;;1.58;;
29414;SDS011;20303;48.302;11.914;2023-03-15T16:38:56;8.57;;;1.90;;
29414;SDS011;20303;48.302;11.914;2023-03-15T16:48:57;5.38;;;1.73;;
29414;SDS011;20303;48.302;11.914;2023-03-15T16:58:58;6.90;;;1.73;;
29414;SDS011;20303;48.302;11.914;2023-03-15T17:09:00;3.10;;;1.55;;
29414;SDS011;20303;48.302;11.914;2023-03-15T17:19:09;7.85;;;1.90;;
29414;SDS011;20303;48.302;11.914;2023-03-15T17:29:14;5.93;;;1.98;;
29414;SDS011;20303;48.302;11.914;2023-03-15T17:39:15;6.78;;;1.90;;
29414;SDS011;20303;48.302;11.914;2023-03-15T17:49:16;6.90;;;2.20;;
29414;SDS011;20303;48.302;11.914;2023-03-15T17:59:17;8.23;;;2.25;;
29414;SDS011;20303;48.302;11.914;2023-03-15T18:09:18;8.40;;;2.60;;
29414;SDS011;20303;48.302;11.914;2023-03-15T18:19:22;8.38;;;3.10;;
29414;SDS011;20303;48.302;11.914;2023-03-15T18:29:24;7.40;;;2.80;;
29414;SDS011;20303;48.302;11.914;2023-03-15T18:39:25;8.88;;;3.30;;
29414;SDS011;20303;48.302;11.914;2023-03-15T18:49:26;8.50;;;2.97;;
29414;SDS011;20303;48.302;11.914;2023-03-15T18:59:27;7.78;;;3.13;;
29414;SDS011;20303;48.302;11.914;2023-03-15T19:09:28;7.07;;;3.03;;
29414;SDS011;20303;48.302;11.914;2023-03-15T19:19:29;4.82;;;2.60;;
29414;SDS011;20303;48.302;11.914;2023-03-15T19:29:30;6.45;;;2.75;;
29414;SDS011;20303;48.302;11.914;2023-03-15T19:39:31;5.65;;;2.40;;
29414;SDS011;20303;48.302;11.914;2023-03-15T19:49:32;5.47;;;2.67;;
29414;SDS011;20303;48.302;11.914;2023-03-15T19:59:35;8.90;;;2.63;;
29414;SDS011;20303;48.302;11.914;2023-03-15T20:09:38;9.27;;;2.75;;
29414;SDS011;20303;48.302;11.914;2023-03-15T20:19:40;4.15;;;2.28;;
29414;SDS011;20303;48.302;11.914;2023-03-15T20:29:41;4.82;;;2.30;;
29414;SDS011;20303;48.302;11.914;2023-03-15T20:39:42;6.10;;;2.47;;
29414;SDS011;20303;48.302;11.914;2023-03-15T20:49:43;4.80;;;2.20;;
29414;SDS011;20303;48.302;11.914;2023-03-15T20:59:44;3.67;;;2.20;;
29414;SDS011;20303;48.302;11.914;2023-03-15T21:09:46;4.57;;;2.13;;
29414;SDS011;20303;48.302;11.914;2023-03-15T21:19:47;4.88;;;2.15;;
29414;SDS011;20303;48.302;11.914;2023-03-15T21:29:48;14.05;;;3.25;;
29414;SDS011;20303;48.302;11.914;2023-03-15T21:39:49;17.13;;;3.00;;
29414;SDS011;20303;48.302;11.914;2023-03-15T21:49:50;13.88;;;2.80;;
29414;SDS011;20303;48.302;11.914;2023-03-15T21:59:52;8.57;;;2.67;;
29414;SDS011;20303;48.302;11.914;2023-03-15T22:09:53;13.52;;;2.85;;
29414;SDS011;20303;48.302;11.914;2023-03-15T22:19:55;10.43;;;2.20;;
29414;SDS011;20303;48.302;11.914;2023-03-15T22:29:56;10.15;;;2.40;;
29414;SDS011;20303;48.302;11.914;2023-03-15T22:39:57;6.95;;;2.08;;
29414;SDS011;20303;48.302;11.914;2023-03-15T22:49:58;6.90;;;2.17;;
29414;SDS011;20303;48.302;11.914;2023-03-15T22:59:59;4.20;;;1.90;;
29414;SDS011;20303;48.302;11.914;2023-03-15T23:10:00;5.25;;;2.00;;
29414;SDS011;20303;48.302;11.914;2023-03-15T23:20:01;4.93;;;1.80;;
29414;SDS011;20303;48.302;11.914;2023-03-15T23:30:04;3.35;;;1.90;;
29414;SDS011;20303;48.302;11.914;2023-03-15T23:40:06;2.85;;;1.60;;
29414;SDS011;20303;48.302;11.914;2023-03-15T23:50:12;2.55;;;1.45;;
